Time;durP1;ratioP1;P1;durP2;ratioP2;P2;SDS_P1;SDS_P2;PMS_P1;PMS_P2;Temp;Humidity;BMP_temperature;BMP_pressure;BME280_temperature;BME280_humidity;BME280_pressure;Samples;Min_cycle;Max_cycle;Signal;HPM_P1;HPM_P2
2021/12/06 00:01:23;;;;;;;2.95;1.23;;;;;;;8.78;74.73;102508.72;5030985;28;20045;-72
2021/12/06 00:03:56;;;;;;;2.35;1.00;;;;;;;8.74;74.34;102517.03;5030868;28;20053;-71
2021/12/06 00:06:26;;;;;;;2.00;1.27;;;;;;;8.68;74.78;102502.06;5031013;28;20136;-72
2021/12/06 00:08:55;;;;;;;3.50;1.08;;;;;;;8.65;75.04;102488.06;5036010;28;20112;-71
2021/12/06 00:11:25;;;;;;;2.05;1.23;;;;;;;8.61;76.89;102492.09;5035959;28;20459;-72
2021/12/06 00:14:01;;;;;;;4.43;1.13;;;;;;;8.58;81.37;102497.06;5055488;28;20088;-71
2021/12/06 00:16:30;;;;;;;7.60;1.55;;;;;;;8.55;82.29;102494.31;5054198;28;20049;-72
2021/12/06 00:18:59;;;;;;;1.83;1.20;;;;;;;8.51;82.79;102485.47;5054205;28;20080;-71
2021/12/06 00:21:28;;;;;;;2.30;1.10;;;;;;;8.48;82.49;102493.00;5054110;28;20442;-74
2021/12/06 00:23:57;;;;;;;4.20;1.50;;;;;;;8.42;80.39;102495.16;5054099;28;20049;-71
2021/12/06 00:26:28;;;;;;;2.67;1.00;;;;;;;8.39;81.59;102495.84;5054308;28;20045;-71
2021/12/06 00:28:58;;;;;;;2.42;0.88;;;;;;;8.35;78.12;102480.06;5054393;28;20049;-71
2021/12/06 00:31:32;;;;;;;5.75;1.35;;;;;;;8.30;79.58;102461.69;5054215;28;20049;-74
2021/12/06 00:34:04;;;;;;;1.83;0.80;;;;;;;8.27;81.53;102452.84;5056939;28;20132;-72
2021/12/06 00:36:34;;;;;;;4.93;1.10;;;;;;;8.19;83.51;102458.41;5061045;28;20052;-72
2021/12/06 00:39:04;;;;;;;2.47;1.10;;;;;;;8.14;86.79;102464.94;5074308;28;20088;-72
2021/12/06 00:41:34;;;;;;;4.43;1.20;;;;;;;8.08;83.36;102472.25;5074082;28;20045;-72
2021/12/06 00:44:03;;;;;;;1.50;0.82;;;;;;;8.02;84.73;102474.44;5073776;28;20593;-72
2021/12/06 00:46:31;;;;;;;2.85;1.33;;;;;;;7.95;84.85;102475.72;5074037;28;20084;-72
2021/12/06 00:49:00;;;;;;;2.17;1.60;;;;;;;7.89;86.11;102485.59;5073856;28;20084;-72
2021/12/06 00:51:28;;;;;;;3.95;2.00;;;;;;;7.82;85.60;102501.44;5073789;28;20049;-70
2021/12/06 00:53:57;;;;;;;2.83;1.50;;;;;;;7.74;87.79;102513.81;5073413;28;20095;-71
2021/12/06 00:56:25;;;;;;;2.58;1.35;;;;;;;7.69;89.05;102517.72;5073730;28;20040;-69
2021/12/06 00:58:56;;;;;;;3.80;2.17;;;;;;;7.65;86.71;102513.16;5073792;28;20094;-70
2021/12/06 01:01:25;;;;;;;3.97;1.92;;;;;;;7.62;85.27;102514.63;5073621;28;20128;-71
2021/12/06 01:03:53;;;;;;;4.35;1.88;;;;;;;7.57;88.56;102506.56;5073361;28;20101;-71
2021/12/06 01:06:21;;;;;;;9.15;1.83;;;;;;;7.52;85.97;102503.69;5073631;28;20540;-71
2021/12/06 01:08:50;;;;;;;3.63;1.55;;;;;;;7.47;86.62;102493.84;5073688;28;20052;-71
2021/12/06 01:11:19;;;;;;;11.05;4.90;;;;;;;7.43;86.67;102487.59;5062383;28;20102;-71
2021/12/06 01:13:47;;;;;;;4.85;1.85;;;;;;;7.41;84.22;102488.25;5054241;28;20517;-71
2021/12/06 01:16:17;;;;;;;5.38;2.42;;;;;;;7.39;86.75;102489.84;5053336;28;20072;-72
2021/12/06 01:18:46;;;;;;;4.40;2.20;;;;;;;7.36;93.55;102474.19;5044726;28;20475;-70
2021/12/06 01:21:19;;;;;;;4.05;1.30;;;;;;;7.26;90.28;102477.78;5033439;28;20104;-71
2021/12/06 01:23:54;;;;;;;3.15;1.80;;;;;;;7.19;93.41;102493.56;5033330;28;20137;-71
2021/12/06 01:29:37;;;;;;;4.22;1.75;;;;;;;7.13;88.21;102476.03;5032552;28;20111;-71
2021/12/06 01:32:16;;;;;;;4.40;1.98;;;;;;;7.08;93.73;102477.38;5035315;28;20419;-71
2021/12/06 01:40:18;;;;;;;3.53;1.48;;;;;;;7.02;91.77;102470.09;5033271;28;20057;-72
2021/12/06 01:42:47;;;;;;;2.43;1.07;;;;;;;6.99;89.69;102453.56;5032331;28;20052;-72
2021/12/06 01:45:15;;;;;;;3.35;1.20;;;;;;;6.95;90.89;102444.72;5032972;28;20699;-73
2021/12/06 01:47:48;;;;;;;4.15;1.42;;;;;;;6.90;92.96;102430.63;5033060;28;20562;-71
2021/12/06 01:50:19;;;;;;;4.70;1.52;;;;;;;6.87;95.49;102430.41;5032904;28;20487;-70
2021/12/06 01:52:51;;;;;;;0.80;0.68;;;;;;;6.86;93.39;102424.38;5033347;28;20046;-71
2021/12/06 01:55:23;;;;;;;2.78;0.68;;;;;;;6.89;99.60;102423.69;5033705;28;20077;-71
2021/12/06 01:57:53;;;;;;;1.02;0.73;;;;;;;6.87;93.02;102422.69;5032823;28;20049;-71
2021/12/06 02:00:26;;;;;;;3.65;0.93;;;;;;;6.85;89.59;102422.59;5032567;28;20137;-71
2021/12/06 02:02:59;;;;;;;1.92;0.90;;;;;;;6.83;88.85;102429.31;5031823;28;20120;-72
2021/12/06 02:05:32;;;;;;;1.67;0.90;;;;;;;6.83;89.16;102434.44;5032297;28;20050;-72
2021/12/06 02:08:01;;;;;;;0.85;0.60;;;;;;;6.85;89.31;102456.03;5032155;28;20115;-71
2021/12/06 02:10:29;;;;;;;1.55;0.98;;;;;;;6.85;89.64;102462.84;5031882;28;20038;-70
2021/12/06 02:12:58;;;;;;;0.90;0.80;;;;;;;6.83;90.23;102444.75;5039984;28;20060;-70
2021/12/06 02:15:40;;;;;;;2.00;0.95;;;;;;;6.81;89.48;102430.00;5052412;28;20061;-71
2021/12/06 02:18:16;;;;;;;2.85;1.10;;;;;;;6.81;91.78;102438.59;5052057;28;20061;-70
2021/12/06 02:20:50;;;;;;;2.08;0.95;;;;;;;6.80;93.08;102434.22;5051924;28;20052;-70
2021/12/06 02:23:20;;;;;;;5.25;1.33;;;;;;;6.78;89.55;102420.38;5051542;28;20072;-70
2021/12/06 02:25:49;;;;;;;3.10;1.05;;;;;;;6.76;91.08;102436.47;5052063;28;20452;-70
2021/12/06 02:28:17;;;;;;;3.22;1.10;;;;;;;6.75;90.05;102448.44;5052840;28;20053;-70
2021/12/06 02:30:46;;;;;;;1.65;1.17;;;;;;;6.78;89.70;102445.19;5053867;28;20041;-71
2021/12/06 02:33:15;;;;;;;4.07;1.52;;;;;;;6.80;91.44;102448.75;5051936;28;20089;-72
2021/12/06 02:35:43;;;;;;;12.73;5.18;;;;;;;6.81;91.14;102443.75;5052341;28;20049;-73
2021/12/06 02:38:12;;;;;;;6.78;3.35;;;;;;;6.85;90.42;102440.59;5051783;28;20049;-71
2021/12/06 02:40:42;;;;;;;3.13;1.50;;;;;;;6.87;92.20;102441.63;5052070;28;20498;-71
2021/12/06 02:43:12;;;;;;;7.40;3.15;;;;;;;6.87;92.44;102436.47;5051329;28;20041;-71
2021/12/06 02:45:42;;;;;;;12.07;3.55;;;;;;;6.86;91.56;102418.34;5052091;28;20049;-71
2021/12/06 02:48:13;;;;;;;4.65;2.42;;;;;;;6.80;93.09;102403.34;5051423;28;20122;-72
2021/12/06 02:50:44;;;;;;;4.55;1.92;;;;;;;6.79;95.22;102406.72;5052008;28;20049;-71
2021/12/06 02:53:13;;;;;;;4.72;1.95;;;;;;;6.81;94.73;102400.00;5051066;28;20041;-71
2021/12/06 02:55:43;;;;;;;2.67;1.67;;;;;;;6.82;90.93;102401.78;5051968;28;20052;-71
2021/12/06 02:58:18;;;;;;;2.55;1.33;;;;;;;6.84;88.84;102405.34;5051223;28;20127;-72
2021/12/06 03:00:50;;;;;;;1.50;1.00;;;;;;;6.75;92.75;102394.41;5051225;28;20053;-72
2021/12/06 03:03:18;;;;;;;;;;;;;;;6.83;92.40;102407.84;5051440;28;20506;-71
2021/12/06 03:05:50;;;;;;;2.47;1.45;;;;;;;6.83;94.31;102385.56;5051878;28;19921;-72
2021/12/06 03:08:38;;;;;;;3.67;1.70;;;;;;;6.82;92.79;102396.63;5051406;28;20076;-71
2021/12/06 03:11:10;;;;;;;3.85;1.75;;;;;;;6.81;91.65;102415.44;5051294;28;20053;-71
2021/12/06 03:13:39;;;;;;;6.10;1.70;;;;;;;6.84;91.73;102425.03;5052014;28;20560;-70
2021/12/06 03:16:08;;;;;;;3.13;1.65;;;;;;;6.83;92.70;102421.59;5051552;28;20045;-69
2021/12/06 03:18:38;;;;;;;3.28;1.65;;;;;;;6.81;91.46;102424.84;5051196;28;20048;-70
2021/12/06 03:21:07;;;;;;;4.03;1.60;;;;;;;6.81;90.97;102417.13;5051155;28;20045;-70
2021/12/06 03:23:36;;;;;;;3.03;1.85;;;;;;;6.81;90.36;102400.00;5050706;28;20108;-69
2021/12/06 03:26:05;;;;;;;2.67;1.15;;;;;;;6.83;92.50;102415.56;5051576;28;20053;-70
2021/12/06 03:28:39;;;;;;;1.75;1.15;;;;;;;6.84;93.79;102409.63;5052317;28;20049;-70
2021/12/06 03:31:08;;;;;;;2.42;1.38;;;;;;;6.81;94.82;102404.25;5052259;28;20055;-70
2021/12/06 03:33:38;;;;;;;3.63;1.60;;;;;;;6.79;93.38;102409.28;5050727;28;20098;-70
2021/12/06 03:36:10;;;;;;;3.60;1.25;;;;;;;6.79;92.83;102413.53;5052482;28;20052;-70
2021/12/06 03:38:40;;;;;;;2.75;1.45;;;;;;;6.81;92.49;102419.69;5052219;28;20044;-70
2021/12/06 03:41:09;;;;;;;3.15;1.48;;;;;;;6.81;93.50;102425.72;5052593;28;20099;-73
2021/12/06 03:43:41;;;;;;;4.53;1.42;;;;;;;6.82;90.97;102422.34;5055254;28;20136;-74
2021/12/06 03:46:12;;;;;;;5.07;2.00;;;;;;;6.83;90.60;102416.44;5055627;28;20041;-73
2021/12/06 03:48:40;;;;;;;2.58;1.70;;;;;;;6.85;89.83;102406.25;5055473;28;20088;-73
2021/12/06 03:51:09;;;;;;;3.80;1.33;;;;;;;6.85;92.33;102402.00;5055475;28;20087;-73
2021/12/06 03:53:38;;;;;;;3.92;1.88;;;;;;;6.85;89.85;102407.16;5054841;28;20087;-72
2021/12/06 03:56:07;;;;;;;3.55;1.42;;;;;;;6.85;92.18;102404.59;5055546;28;20049;-73
2021/12/06 03:58:36;;;;;;;2.88;1.40;;;;;;;6.83;94.55;102382.09;5054667;28;20053;-72
2021/12/06 04:01:08;;;;;;;3.83;1.48;;;;;;;6.76;95.96;102348.97;5054933;28;20132;-73
2021/12/06 04:03:39;;;;;;;3.53;1.50;;;;;;;6.74;93.97;102336.03;5054434;28;20048;-73
2021/12/06 04:06:10;;;;;;;1.52;1.20;;;;;;;6.71;90.67;102325.50;5055133;28;20107;-73
2021/12/06 04:08:38;;;;;;;3.33;1.55;;;;;;;6.69;92.13;102319.41;5054823;28;20127;-74
2021/12/06 04:11:13;;;;;;;2.55;1.25;;;;;;;6.61;93.00;102307.66;5054738;28;20087;-73
2021/12/06 04:13:42;;;;;;;1.33;1.00;;;;;;;6.71;94.03;102315.22;5055370;28;20055;-74
2021/12/06 04:16:12;;;;;;;3.13;1.15;;;;;;;6.72;94.34;102306.75;5055124;28;20049;-73
2021/12/06 04:18:40;;;;;;;2.40;1.45;;;;;;;6.73;95.40;102282.78;5054529;28;20110;-74
2021/12/06 04:21:10;;;;;;;2.92;1.25;;;;;;;6.74;94.56;102279.44;5054592;28;20072;-73
2021/12/06 04:23:39;;;;;;;3.28;1.13;;;;;;;6.74;91.55;102269.16;5054082;28;20387;-73
2021/12/06 04:26:08;;;;;;;1.30;1.02;;;;;;;6.75;93.55;102270.03;5055120;28;20048;-73
2021/12/06 04:28:37;;;;;;;2.83;1.00;;;;;;;6.73;92.36;102264.78;5057115;28;20049;-73
2021/12/06 04:31:06;;;;;;;2.08;1.15;;;;;;;6.71;91.89;102268.91;5054696;28;20045;-73
2021/12/06 04:33:36;;;;;;;2.38;1.27;;;;;;;6.65;91.19;102287.41;5054102;28;20056;-73
2021/12/06 04:36:06;;;;;;;2.13;1.48;;;;;;;6.60;93.45;102306.78;5054284;28;20094;-73
2021/12/06 04:38:34;;;;;;;2.55;1.00;;;;;;;6.60;95.17;102285.31;5053968;28;20099;-74
2021/12/06 04:41:03;;;;;;;3.67;1.30;;;;;;;6.60;95.05;102290.47;5054062;28;20556;-73
2021/12/06 04:43:35;;;;;;;2.35;1.27;;;;;;;6.57;97.65;102296.25;5053621;28;20045;-73
2021/12/06 04:46:06;;;;;;;1.55;1.00;;;;;;;6.56;100.00;102271.34;5054172;28;20458;-72
2021/12/06 04:48:36;;;;;;;1.70;1.20;;;;;;;6.54;99.49;102264.31;5053884;28;20049;-72
2021/12/06 04:51:05;;;;;;;1.77;1.10;;;;;;;6.53;99.58;102288.22;5053584;28;20045;-72
2021/12/06 04:53:42;;;;;;;2.65;1.20;;;;;;;6.53;99.88;102298.50;5052571;28;20057;-73
2021/12/06 04:56:21;;;;;;;4.03;1.45;;;;;;;6.53;99.67;102268.56;5052951;28;20048;-73
2021/12/06 04:58:56;;;;;;;2.33;1.23;;;;;;;6.48;98.00;102265.66;5053299;28;20128;-73
2021/12/06 05:01:28;;;;;;;3.92;1.52;;;;;;;6.48;99.35;102265.66;5052991;28;20076;-72
2021/12/06 05:04:01;;;;;;;3.53;2.15;;;;;;;6.52;99.64;102261.63;5052951;28;20124;-74
2021/12/06 05:06:29;;;;;;;;;;;;;;;6.55;99.55;102260.94;5055003;28;20057;-72
2021/12/06 05:09:00;;;;;;;16.27;6.57;;;;;;;6.55;100.00;102261.84;5053626;28;20025;-73
2021/12/06 05:11:31;;;;;;;5.22;1.88;;;;;;;6.56;100.00;102255.03;5053614;28;20460;-72
2021/12/06 05:14:02;;;;;;;14.00;5.55;;;;;;;6.48;100.00;102278.53;5054213;28;20057;-72
2021/12/06 05:16:31;;;;;;;9.65;4.78;;;;;;;6.59;100.00;102283.50;5054029;28;20522;-72
2021/12/06 05:19:01;;;;;;;11.65;6.25;;;;;;;6.61;100.00;102275.13;5052957;28;20091;-72
2021/12/06 05:21:29;;;;;;;9.75;5.13;;;;;;;6.60;100.00;102260.47;5054368;28;20049;-72
2021/12/06 05:23:58;;;;;;;13.50;5.75;;;;;;;6.62;100.00;102268.28;5053879;28;20564;-72
2021/12/06 05:26:27;;;;;;;6.28;3.83;;;;;;;6.62;100.00;102278.56;5054913;28;20076;-72
2021/12/06 05:28:59;;;;;;;10.15;4.03;;;;;;;6.63;100.00;102290.66;5055376;28;20064;-72
2021/12/06 05:31:29;;;;;;;7.68;4.18;;;;;;;6.64;100.00;102292.44;5053650;28;20049;-73
2021/12/06 05:34:02;;;;;;;8.40;5.00;;;;;;;6.62;100.00;102278.56;5053204;28;20505;-73
2021/12/06 05:36:32;;;;;;;5.53;3.25;;;;;;;6.58;100.00;102281.75;5053486;28;20743;-72
2021/12/06 05:39:01;;;;;;;4.25;2.70;;;;;;;6.52;100.00;102271.91;5052966;28;20613;-72
2021/12/06 05:41:30;;;;;;;7.68;2.25;;;;;;;6.47;100.00;102238.16;5052732;28;20052;-72
2021/12/06 05:43:58;;;;;;;6.28;2.80;;;;;;;6.38;100.00;102216.94;5052441;28;20095;-72
2021/12/06 05:46:27;;;;;;;6.80;2.58;;;;;;;6.36;100.00;102212.47;5052890;28;20479;-72
2021/12/06 05:48:56;;;;;;;4.78;1.98;;;;;;;6.33;100.00;102218.31;5052674;28;20049;-71
2021/12/06 05:51:25;;;;;;;3.83;1.92;;;;;;;6.34;100.00;102240.63;5052621;28;20096;-72
2021/12/06 05:53:55;;;;;;;4.13;1.52;;;;;;;6.36;100.00;102203.06;5052356;28;20049;-71
2021/12/06 05:56:24;;;;;;;3.20;2.20;;;;;;;6.30;100.00;102215.53;5052788;28;20098;-73
2021/12/06 05:58:52;;;;;;;4.07;2.17;;;;;;;6.32;100.00;102218.19;5052576;28;20192;-72
2021/12/06 06:01:24;;;;;;;4.68;2.50;;;;;;;6.34;100.00;102217.50;5052450;28;20099;-72
2021/12/06 06:03:52;;;;;;;16.75;7.00;;;;;;;6.36;100.00;102221.06;5052133;28;20053;-73
2021/12/06 06:06:21;;;;;;;9.13;4.93;;;;;;;6.40;100.00;102209.34;5052360;28;20048;-73
2021/12/06 06:08:49;;;;;;;7.43;2.80;;;;;;;6.41;100.00;102226.53;5052421;28;20052;-72
2021/12/06 06:11:19;;;;;;;7.18;3.25;;;;;;;6.35;100.00;102221.88;5052056;28;20059;-72
2021/12/06 06:13:48;;;;;;;5.07;3.45;;;;;;;6.45;100.00;102221.72;5053078;28;20282;-72
2021/12/06 06:16:20;;;;;;;4.93;3.10;;;;;;;6.46;100.00;102226.09;5052519;28;20056;-72
2021/12/06 06:18:49;;;;;;;6.63;2.60;;;;;;;6.46;100.00;102231.22;5052129;28;20080;-71
2021/12/06 06:21:21;;;;;;;5.00;2.78;;;;;;;6.47;100.00;102225.28;5052052;28;20057;-73
2021/12/06 06:23:49;;;;;;;4.63;2.55;;;;;;;6.40;100.00;102217.94;5051963;28;20073;-71
2021/12/06 06:26:20;;;;;;;6.88;2.70;;;;;;;6.41;100.00;102196.56;5055149;28;20049;-72
2021/12/06 06:28:48;;;;;;;6.53;2.70;;;;;;;6.40;100.00;102184.53;5052273;28;20092;-71
2021/12/06 06:31:17;;;;;;;7.55;2.58;;;;;;;6.39;100.00;102187.88;5052068;28;20041;-71
2021/12/06 06:33:45;;;;;;;6.55;2.75;;;;;;;6.42;100.00;102182.94;5051774;28;20045;-71
2021/12/06 06:36:14;;;;;;;5.25;3.28;;;;;;;6.46;100.00;102169.53;5051980;28;20503;-71
2021/12/06 06:38:42;;;;;;;5.43;2.50;;;;;;;6.50;100.00;102165.47;5051751;28;20111;-71
2021/12/06 06:41:11;;;;;;;14.80;5.47;;;;;;;6.52;100.00;102163.91;5051893;28;20536;-71
2021/12/06 06:43:41;;;;;;;8.32;3.50;;;;;;;6.54;100.00;102151.16;5051519;28;20049;-71
2021/12/06 06:46:10;;;;;;;11.23;3.85;;;;;;;6.55;100.00;102152.91;5052070;28;20049;-72
2021/12/06 06:48:39;;;;;;;12.40;3.65;;;;;;;6.52;100.00;102127.91;5051707;28;20056;-71
2021/12/06 06:51:07;;;;;;;7.43;3.30;;;;;;;6.48;100.00;102128.47;5051895;28;20048;-71
2021/12/06 06:53:35;;;;;;;8.80;3.22;;;;;;;6.50;100.00;102126.91;5051403;28;20077;-70
2021/12/06 06:56:04;;;;;;;6.65;2.97;;;;;;;6.48;100.00;102131.97;5051722;28;20110;-71
2021/12/06 06:58:33;;;;;;;7.20;2.92;;;;;;;6.50;100.00;102140.66;5051382;28;20103;-71
2021/12/06 07:01:03;;;;;;;6.20;2.85;;;;;;;6.52;100.00;102155.28;5051548;28;20045;-71
2021/12/06 07:03:32;;;;;;;3.67;2.20;;;;;;;6.53;100.00;102175.06;5051230;28;20502;-71
2021/12/06 07:06:01;;;;;;;3.25;1.77;;;;;;;6.52;100.00;102173.28;5051580;28;20487;-71
2021/12/06 07:08:29;;;;;;;4.43;2.20;;;;;;;6.51;100.00;102180.13;5050310;28;20060;-71
2021/12/06 07:11:00;;;;;;;2.92;1.83;;;;;;;6.51;100.00;102187.84;5050955;28;20106;-71
2021/12/06 07:13:30;;;;;;;3.78;2.30;;;;;;;6.50;100.00;102192.09;5052239;28;20102;-71
2021/12/06 07:15:59;;;;;;;7.82;3.10;;;;;;;6.52;100.00;102188.72;5051410;28;20136;-70
2021/12/06 07:18:29;;;;;;;5.30;2.33;;;;;;;6.53;100.00;102162.22;5052915;28;20637;-69
2021/12/06 07:20:58;;;;;;;4.72;1.60;;;;;;;6.54;100.00;102149.47;5051930;28;20052;-70
2021/12/06 07:23:26;;;;;;;4.63;2.17;;;;;;;6.57;100.00;102143.63;5050984;28;20045;-70
2021/12/06 07:25:55;;;;;;;2.50;1.58;;;;;;;6.60;100.00;102167.91;5053666;28;20053;-70
2021/12/06 07:28:23;;;;;;;5.05;1.92;;;;;;;6.60;100.00;102179.88;5051453;28;20148;-70
2021/12/06 07:30:52;;;;;;;4.93;1.83;;;;;;;6.63;100.00;102177.50;5051432;28;20466;-72
2021/12/06 07:33:21;;;;;;;5.05;1.90;;;;;;;6.64;100.00;102171.53;5051164;28;20411;-71
2021/12/06 07:35:51;;;;;;;2.83;1.60;;;;;;;6.63;100.00;102157.81;5051626;28;20044;-71
2021/12/06 07:38:20;;;;;;;3.38;1.75;;;;;;;6.63;100.00;102146.63;5051469;28;20135;-71
2021/12/06 07:40:50;;;;;;;1.83;1.48;;;;;;;6.65;100.00;102142.50;5051020;28;20053;-71
2021/12/06 07:43:19;;;;;;;7.30;2.70;;;;;;;6.64;100.00;102125.25;5050918;28;20483;-71
2021/12/06 07:45:48;;;;;;;8.60;3.05;;;;;;;6.66;100.00;102118.53;5051188;28;20041;-72
2021/12/06 07:48:19;;;;;;;5.85;2.78;;;;;;;6.66;100.00;102127.13;5051017;28;20562;-72
2021/12/06 07:50:48;;;;;;;5.68;2.90;;;;;;;6.68;100.00;102129.81;5050997;28;20052;-71
2021/12/06 07:53:18;;;;;;;7.72;3.00;;;;;;;6.66;100.00;102129.72;5050752;28;20056;-71
2021/12/06 07:55:47;;;;;;;5.70;2.45;;;;;;;6.65;100.00;102129.63;5051424;28;20102;-71
2021/12/06 07:58:29;;;;;;;6.18;2.60;;;;;;;6.62;100.00;102134.53;5050956;28;20448;-71
2021/12/06 08:00:58;;;;;;;7.75;2.92;;;;;;;6.61;100.00;102120.81;5050983;28;20049;-71
2021/12/06 08:03:30;;;;;;;6.47;2.47;;;;;;;6.61;100.00;102096.78;5050480;28;20056;-71
2021/12/06 08:05:59;;;;;;;5.00;2.30;;;;;;;6.62;100.00;102075.38;5051265;28;20099;-71
2021/12/06 08:08:31;;;;;;;4.78;2.20;;;;;;;6.54;100.00;102063.72;5050796;28;20131;-71
2021/12/06 08:11:06;;;;;;;3.47;1.77;;;;;;;6.40;100.00;102053.41;5051002;28;20099;-71
2021/12/06 08:13:36;;;;;;;3.38;1.38;;;;;;;6.42;100.00;102058.66;5051542;28;20057;-71
2021/12/06 08:16:08;;;;;;;3.10;1.95;;;;;;;6.41;100.00;102062.88;5051223;28;20395;-71
2021/12/06 08:18:37;;;;;;;4.07;1.80;;;;;;;6.44;100.00;102093.97;5050830;28;20041;-71
2021/12/06 08:21:06;;;;;;;4.00;1.90;;;;;;;6.43;100.00;102101.56;5050840;28;20422;-71
2021/12/06 08:23:37;;;;;;;4.28;2.10;;;;;;;6.42;100.00;102095.53;5052183;28;20164;-71
2021/12/06 08:26:06;;;;;;;4.60;1.70;;;;;;;6.40;100.00;102097.09;5051592;28;20103;-71
2021/12/06 08:28:36;;;;;;;4.60;2.35;;;;;;;6.40;100.00;102101.34;5051852;28;20081;-71
2021/12/06 08:31:06;;;;;;;4.60;2.38;;;;;;;6.39;100.00;102090.19;5054030;28;20131;-71
2021/12/06 08:33:35;;;;;;;3.13;1.85;;;;;;;6.36;100.00;102084.81;5053586;28;20107;-71
2021/12/06 08:36:08;;;;;;;5.72;2.92;;;;;;;6.35;100.00;102089.88;5053864;28;20076;-71
2021/12/06 08:38:38;;;;;;;;;;;;;;;6.35;100.00;102093.34;5054397;28;20041;-71
2021/12/06 08:41:08;;;;;;;6.78;2.33;;;;;;;6.38;100.00;102103.81;5053843;28;19963;-71
2021/12/06 08:43:37;;;;;;;5.88;2.38;;;;;;;6.34;100.00;102106.97;5053155;28;20577;-71
2021/12/06 08:46:13;;;;;;;8.13;2.67;;;;;;;6.45;100.00;102120.56;5053639;28;20045;-71
2021/12/06 08:48:42;;;;;;;8.20;3.15;;;;;;;6.45;100.00;102110.28;5053594;28;20049;-71
2021/12/06 08:51:13;;;;;;;6.93;2.92;;;;;;;6.46;100.00;102120.66;5053313;28;20080;-70
2021/12/06 08:53:44;;;;;;;6.90;2.58;;;;;;;6.47;100.00;102076.16;5052960;28;20077;-71
2021/12/06 08:56:13;;;;;;;7.38;2.65;;;;;;;6.35;100.00;102030.75;5053535;28;20056;-70
2021/12/06 08:58:42;;;;;;;4.80;2.30;;;;;;;6.28;100.00;102014.91;5053552;28;20056;-70
2021/12/06 09:01:11;;;;;;;3.70;1.90;;;;;;;6.24;100.00;102040.31;5053359;28;20053;-70
2021/12/06 09:03:40;;;;;;;5.85;2.33;;;;;;;6.17;100.00;102035.53;5052789;28;20572;-70
2021/12/06 09:06:12;;;;;;;3.88;2.20;;;;;;;6.13;100.00;102029.28;5053342;28;20045;-70
2021/12/06 09:08:42;;;;;;;3.05;1.70;;;;;;;6.16;100.00;101995.19;5053113;28;20052;-70
2021/12/06 09:11:12;;;;;;;5.72;2.53;;;;;;;6.18;100.00;101991.06;5053003;28;20118;-70
2021/12/06 09:13:43;;;;;;;4.22;1.90;;;;;;;6.12;100.00;101977.81;5053811;28;20114;-69
2021/12/06 09:16:13;;;;;;;4.65;2.10;;;;;;;6.20;100.00;101956.06;5053311;28;20106;-70
2021/12/06 09:18:45;;;;;;;5.60;2.08;;;;;;;6.12;100.00;101940.16;5054520;28;20544;-70
2021/12/06 09:21:17;;;;;;;3.25;2.17;;;;;;;6.07;100.00;101937.28;5053813;28;20060;-69
2021/12/06 09:23:47;;;;;;;4.63;2.50;;;;;;;6.10;100.00;101936.59;5053728;28;20049;-69
2021/12/06 09:26:16;;;;;;;3.47;1.83;;;;;;;6.10;100.00;101935.72;5054940;28;20098;-69
2021/12/06 09:28:45;;;;;;;4.82;2.15;;;;;;;6.13;100.00;101939.34;5053246;28;20106;-70
2021/12/06 09:31:16;;;;;;;4.38;2.05;;;;;;;6.18;100.00;101939.66;5053830;28;20084;-69
2021/12/06 09:33:44;;;;;;;3.38;1.73;;;;;;;6.18;100.00;101958.53;5053810;28;20126;-69
2021/12/06 09:36:14;;;;;;;4.53;2.20;;;;;;;6.19;100.00;101974.88;5053649;28;20115;-69
2021/12/06 09:38:48;;;;;;;4.82;2.58;;;;;;;6.19;100.00;101988.59;5053707;28;20045;-70
2021/12/06 09:41:21;;;;;;;3.05;1.95;;;;;;;6.17;100.00;101995.31;5053876;28;20140;-69
2021/12/06 09:43:52;;;;;;;4.63;2.25;;;;;;;6.15;100.00;102001.13;5052649;28;20044;-69
2021/12/06 09:46:21;;;;;;;2.60;1.90;;;;;;;6.15;100.00;101981.47;5052762;28;20044;-69
2021/12/06 09:48:50;;;;;;;5.18;1.67;;;;;;;6.14;100.00;101983.91;5052790;28;20522;-69
2021/12/06 09:51:22;;;;;;;4.50;1.70;;;;;;;6.15;100.00;101985.72;5052805;28;20052;-69
2021/12/06 09:53:54;;;;;;;3.47;1.40;;;;;;;6.15;100.00;101988.28;5052105;28;20128;-69
2021/12/06 09:56:25;;;;;;;5.43;2.20;;;;;;;6.15;100.00;101972.88;5052752;28;20081;-70
2021/12/06 09:58:56;;;;;;;3.88;1.60;;;;;;;6.14;100.00;101978.78;5052350;28;20049;-69
2021/12/06 10:01:28;;;;;;;3.80;1.55;;;;;;;6.14;100.00;101973.63;5052441;28;20099;-69
2021/12/06 10:03:59;;;;;;;5.93;2.20;;;;;;;6.15;100.00;101957.44;5051926;28;20072;-69
2021/12/06 10:06:37;;;;;;;3.50;1.58;;;;;;;6.13;100.00;101961.59;5052511;28;20554;-69
2021/12/06 10:09:09;;;;;;;3.28;1.95;;;;;;;6.13;100.00;101974.44;5051973;28;20125;-69
2021/12/06 10:11:39;;;;;;;3.25;1.63;;;;;;;6.12;100.00;101957.25;5052049;28;20044;-69
2021/12/06 10:14:08;;;;;;;7.35;2.20;;;;;;;6.14;100.00;101954.00;5052894;28;20433;-69
2021/12/06 10:16:37;;;;;;;5.68;2.00;;;;;;;6.15;100.00;101949.75;5052232;28;20053;-69
2021/12/06 10:19:07;;;;;;;3.20;1.77;;;;;;;6.12;100.00;101931.56;5051746;28;20045;-69
2021/12/06 10:21:36;;;;;;;2.95;1.30;;;;;;;6.02;100.00;101930.03;5052194;28;20056;-69
2021/12/06 10:24:11;;;;;;;6.28;1.85;;;;;;;5.95;100.00;101921.03;5054193;28;20084;-69
2021/12/06 10:26:41;;;;;;;3.08;1.45;;;;;;;5.90;100.00;101909.53;5051983;28;20045;-69
2021/12/06 10:29:19;;;;;;;5.60;1.73;;;;;;;5.85;100.00;101892.94;5051816;28;20045;-69
2021/12/06 10:31:50;;;;;;;4.38;1.80;;;;;;;5.80;100.00;101889.16;5051535;28;20157;-69
2021/12/06 10:34:22;;;;;;;3.47;1.83;;;;;;;5.75;100.00;101877.66;5051179;28;20084;-69
2021/12/06 10:36:51;;;;;;;4.35;1.67;;;;;;;5.75;100.00;101877.66;5051662;28;20068;-69
2021/12/06 10:39:24;;;;;;;4.43;1.63;;;;;;;5.74;100.00;101874.22;5051352;28;20056;-69
2021/12/06 10:41:54;;;;;;;4.72;1.95;;;;;;;5.77;100.00;101863.25;5051289;28;20052;-69
2021/12/06 10:44:23;;;;;;;4.63;2.58;;;;;;;5.79;100.00;101848.84;5051131;28;20106;-69
2021/12/06 10:46:54;;;;;;;2.95;1.80;;;;;;;5.81;100.00;101834.44;5051542;28;20049;-69
2021/12/06 10:49:24;;;;;;;3.70;1.83;;;;;;;5.86;100.00;101831.38;5051366;28;20522;-70
2021/12/06 10:51:53;;;;;;;5.47;1.70;;;;;;;5.92;100.00;101848.88;5050450;28;20528;-71
2021/12/06 10:54:34;;;;;;;3.25;1.63;;;;;;;5.97;100.00;101855.22;5050909;28;20154;-70
2021/12/06 10:57:04;;;;;;;5.53;1.95;;;;;;;5.99;100.00;101851.09;5051452;28;20041;-70
2021/12/06 10:59:40;;;;;;;3.85;1.67;;;;;;;6.02;100.00;101855.53;5051199;28;20048;-70
2021/12/06 11:02:12;;;;;;;4.50;2.08;;;;;;;6.04;100.00;101870.25;5051045;28;20402;-70
2021/12/06 11:04:41;;;;;;;2.97;1.75;;;;;;;6.06;100.00;101873.81;5050906;28;20084;-70
2021/12/06 11:07:12;;;;;;;2.67;1.27;;;;;;;6.06;100.00;101868.69;5051384;28;20045;-69
2021/12/06 11:09:44;;;;;;;5.15;1.85;;;;;;;6.04;100.00;101859.09;5051015;28;20051;-70
2021/12/06 11:12:22;;;;;;;5.47;2.13;;;;;;;6.06;100.00;101857.50;5050583;28;20087;-70
2021/12/06 11:15:03;;;;;;;4.90;1.80;;;;;;;6.05;100.00;101864.34;5052139;28;20132;-70
2021/12/06 11:17:33;;;;;;;3.97;2.33;;;;;;;6.07;100.00;101856.75;5051125;28;20511;-70
2021/12/06 11:20:01;;;;;;;5.18;1.90;;;;;;;6.02;100.00;101861.53;5051671;28;20530;-70
2021/12/06 11:22:30;;;;;;;2.42;1.45;;;;;;;6.12;100.00;101868.19;5051946;28;20087;-70
2021/12/06 11:25:00;;;;;;;6.18;2.30;;;;;;;6.10;100.00;101844.09;5052079;28;20495;-69
2021/12/06 11:27:32;;;;;;;6.30;2.20;;;;;;;6.08;100.00;101849.09;5051191;28;20502;-70
2021/12/06 11:30:04;;;;;;;4.78;2.40;;;;;;;6.10;100.00;101840.63;5050738;28;20098;-69
2021/12/06 11:32:34;;;;;;;2.80;1.60;;;;;;;6.08;100.00;101838.84;5050676;28;20053;-69
2021/12/06 11:35:09;;;;;;;4.22;2.05;;;;;;;6.06;100.00;101827.56;5050673;28;20052;-69
2021/12/06 11:37:40;;;;;;;3.53;2.28;;;;;;;5.97;100.00;101829.53;5050660;28;20045;-69
2021/12/06 11:40:15;;;;;;;5.63;2.33;;;;;;;5.92;100.00;101819.72;5050424;28;20056;-69
2021/12/06 11:42:51;;;;;;;2.78;1.70;;;;;;;5.89;100.00;101823.00;5050382;28;20060;-70
2021/12/06 11:45:33;;;;;;;3.50;2.05;;;;;;;5.91;100.00;101831.69;5050740;28;20084;-70
2021/12/06 11:48:05;;;;;;;3.33;2.20;;;;;;;5.93;100.00;101845.50;5051026;28;20049;-70
2021/12/06 11:50:34;;;;;;;8.38;2.67;;;;;;;5.96;100.00;101830.34;5050788;28;20648;-70
2021/12/06 11:53:06;;;;;;;3.08;1.80;;;;;;;5.90;100.00;101816.16;5050485;28;20048;-69